Time;durP1;ratioP1;P1;durP2;ratioP2;P2;SDS_P1;SDS_P2;PMS_P1;PMS_P2;Temp;Humidity;BMP_temperature;BMP_pressure;BME280_temperature;BME280_humidity;BME280_pressure;Samples;Min_cycle;Max_cycle;Signal;HPM_P1;HPM_P2
2022/08/15 00:01:16;;;;;;;11.18;10.07;;;;;;;25.87;48.45;100197.44;6216874;23;20087;-62
2022/08/15 00:03:48;;;;;;;12.27;9.73;;;;;;;25.85;47.96;100191.28;6215638;23;20016;-63
2022/08/15 00:06:21;;;;;;;12.43;10.07;;;;;;;25.83;47.99;100178.66;6214937;23;20005;-62
2022/08/15 00:08:50;;;;;;;11.43;10.32;;;;;;;25.81;48.28;100176.16;6213833;23;20364;-62
2022/08/15 00:11:26;;;;;;;10.85;9.90;;;;;;;25.81;48.19;100170.47;6213150;23;20012;-63
2022/08/15 00:13:56;;;;;;;14.35;10.93;;;;;;;25.78;47.99;100185.47;6216556;23;20001;-63
2022/08/15 00:16:22;;;;;;;12.63;10.30;;;;;;;25.80;47.66;100183.06;6216126;23;20000;-62
2022/08/15 00:18:48;;;;;;;11.55;10.45;;;;;;;25.79;47.79;100195.63;6214969;23;20299;-62
2022/08/15 00:21:13;;;;;;;12.13;10.90;;;;;;;25.71;48.33;100188.94;6214698;23;20020;-63
2022/08/15 00:23:40;;;;;;;13.00;10.80;;;;;;;25.74;47.86;100183.69;6213747;23;20020;-63
2022/08/15 00:26:07;;;;;;;11.43;10.35;;;;;;;25.73;47.84;100191.38;6213938;23;20425;-63
2022/08/15 00:28:32;;;;;;;12.35;10.80;;;;;;;25.71;47.85;100188.94;6215266;23;20004;-63
2022/08/15 00:30:57;;;;;;;12.30;10.82;;;;;;;25.68;48.66;100188.84;6214127;23;20005;-62
2022/08/15 00:33:24;;;;;;;11.75;10.55;;;;;;;25.70;48.21;100192.13;6215716;23;20409;-63
2022/08/15 00:35:50;;;;;;;12.27;11.05;;;;;;;25.65;48.28;100193.25;6214807;23;20012;-62
2022/08/15 00:38:19;;;;;;;12.35;11.15;;;;;;;25.68;48.05;100188.84;6215509;23;20004;-63
2022/08/15 00:43:34;;;;;;;13.20;11.80;;;;;;;25.62;47.98;100176.97;6214515;23;20027;-63
2022/08/15 00:46:01;;;;;;;13.25;11.60;;;;;;;25.58;47.96;100178.88;6214719;23;20005;-63
2022/08/15 00:48:42;;;;;;;12.98;11.77;;;;;;;25.59;47.48;100189.06;6215056;23;20004;-63
2022/08/15 00:51:22;;;;;;;12.63;11.52;;;;;;;25.59;46.69;100183.38;6214934;23;20004;-63
2022/08/15 00:54:02;;;;;;;11.80;10.68;;;;;;;25.57;46.09;100182.91;6214798;23;20079;-63
2022/08/15 00:56:32;;;;;;;14.73;10.65;;;;;;;25.54;45.96;100183.66;6214702;23;20004;-63
2022/08/15 00:58:58;;;;;;;11.20;9.77;;;;;;;25.54;44.94;100192.16;6213377;23;20000;-63
2022/08/15 01:01:24;;;;;;;10.73;9.23;;;;;;;25.54;44.26;100186.47;6214779;23;20016;-63
2022/08/15 01:03:50;;;;;;;11.38;8.65;;;;;;;25.56;44.14;100194.66;6213370;23;20409;-63
2022/08/15 01:06:17;;;;;;;8.75;7.88;;;;;;;25.53;43.75;100190.53;6213943;23;20001;-63
2022/08/15 01:08:45;;;;;;;12.10;7.75;;;;;;;25.51;43.41;100190.09;6215648;23;20091;-63
2022/08/15 01:11:28;;;;;;;8.63;7.20;;;;;;;25.55;43.87;100184.50;6215114;23;20371;-63
2022/08/15 01:13:55;;;;;;;9.02;6.60;;;;;;;25.52;42.95;100185.22;6212747;23;20480;-63
2022/08/15 01:16:23;;;;;;;8.98;6.32;;;;;;;25.49;42.55;100181.09;6214482;23;20075;-63
2022/08/15 01:18:49;;;;;;;7.80;5.80;;;;;;;25.40;41.37;100177.66;6214356;23;20083;-63
2022/08/15 01:21:29;;;;;;;6.20;5.60;;;;;;;25.50;42.11;100171.38;6213566;23;20020;-63
2022/08/15 01:24:09;;;;;;;5.97;5.15;;;;;;;25.42;41.30;100180.94;6215137;23;20016;-63
2022/08/15 01:26:36;;;;;;;8.32;4.43;;;;;;;25.43;40.88;100186.25;6213545;23;20008;-63
2022/08/15 01:29:03;;;;;;;6.32;4.65;;;;;;;25.40;40.15;100186.16;6212104;23;20008;-63
2022/08/15 01:31:29;;;;;;;4.45;4.05;;;;;;;25.40;40.12;100184.16;6213259;23;20015;-63
2022/08/15 01:33:57;;;;;;;4.57;3.90;;;;;;;25.41;40.43;100171.59;6214806;23;20067;-63
2022/08/15 01:36:26;;;;;;;5.60;3.97;;;;;;;25.39;39.98;100178.84;6213795;23;20223;-63
2022/08/15 01:38:59;;;;;;;5.28;3.90;;;;;;;25.37;39.83;100175.53;6215710;23;20009;-63
2022/08/15 01:41:40;;;;;;;4.53;3.83;;;;;;;25.40;39.95;100166.28;6214996;23;20027;-63
2022/08/15 01:44:18;;;;;;;4.93;3.67;;;;;;;25.34;39.79;100167.75;6214204;23;20337;-63
2022/08/15 01:46:53;;;;;;;5.28;3.40;;;;;;;25.33;40.07;100177.47;6214879;23;20507;-63
2022/08/15 01:49:36;;;;;;;4.03;3.35;;;;;;;25.36;40.31;100185.25;6213629;23;20013;-63
2022/08/15 01:52:04;;;;;;;5.35;3.53;;;;;;;25.28;39.27;100194.81;6213650;23;20452;-63
2022/08/15 01:54:36;;;;;;;3.90;3.35;;;;;;;25.20;39.37;100186.09;6213310;23;20012;-63
2022/08/15 01:57:02;;;;;;;4.55;3.35;;;;;;;25.21;39.47;100182.06;6213259;23;20016;-63
2022/08/15 01:59:28;;;;;;;3.58;3.22;;;;;;;25.24;39.25;100186.19;6214159;23;20054;-63
2022/08/15 02:01:59;;;;;;;6.15;3.42;;;;;;;25.20;39.86;100179.59;6213772;23;20016;-63
2022/08/15 02:04:32;;;;;;;3.60;3.20;;;;;;;25.15;39.17;100185.53;6214140;23;20060;-63
2022/08/15 02:07:01;;;;;;;7.70;3.67;;;;;;;25.14;39.47;100186.75;6212606;23;20436;-63
2022/08/15 02:09:27;;;;;;;6.47;3.22;;;;;;;25.13;39.23;100179.44;6213296;23;20301;-63
2022/08/15 02:11:54;;;;;;;3.53;3.08;;;;;;;25.14;39.58;100183.91;6213805;23;20012;-63
2022/08/15 02:14:20;;;;;;;7.10;3.20;;;;;;;25.13;39.23;100191.59;6215433;23;20025;-63
2022/08/15 02:16:49;;;;;;;4.93;2.92;;;;;;;25.10;39.47;100186.66;6213497;23;20001;-63
2022/08/15 02:19:15;;;;;;;6.13;3.47;;;;;;;25.07;39.32;100184.50;6213714;23;19996;-63
2022/08/15 02:21:45;;;;;;;5.68;3.30;;;;;;;25.10;39.50;100180.97;6214209;23;20008;-63
2022/08/15 02:24:20;;;;;;;6.45;3.13;;;;;;;25.09;39.47;100189.84;6213780;23;20321;-64
2022/08/15 02:26:46;;;;;;;5.90;3.08;;;;;;;25.08;39.57;100180.50;6213690;23;20008;-64
2022/08/15 02:29:12;;;;;;;5.10;3.13;;;;;;;25.06;39.32;100187.72;6214887;23;20005;-63
2022/08/15 02:31:39;;;;;;;5.28;3.30;;;;;;;25.04;39.74;100176.75;6213702;23;20130;-63
2022/08/15 02:34:06;;;;;;;5.60;3.20;;;;;;;25.00;39.48;100178.69;6212814;23;20015;-63
2022/08/15 02:36:34;;;;;;;6.03;3.83;;;;;;;24.97;39.40;100177.38;6214188;23;20027;-63
2022/08/15 02:39:03;;;;;;;6.43;3.22;;;;;;;24.98;39.73;100184.72;6213356;23;20039;-64
2022/08/15 02:41:32;;;;;;;5.15;3.33;;;;;;;24.93;39.75;100182.16;6214688;23;20079;-64
2022/08/15 02:43:59;;;;;;;9.18;3.60;;;;;;;24.94;39.67;100182.97;6214906;23;20076;-64
2022/08/15 02:46:26;;;;;;;6.10;3.47;;;;;;;24.91;39.64;100184.53;6213402;23;20028;-63
2022/08/15 02:48:53;;;;;;;4.53;3.20;;;;;;;24.87;39.73;100189.28;6214467;23;20088;-63
2022/08/15 02:51:19;;;;;;;9.48;3.15;;;;;;;24.90;39.67;100188.56;6213978;23;20009;-64
2022/08/15 02:53:47;;;;;;;3.88;3.20;;;;;;;24.84;39.47;100195.72;6213471;23;20107;-64
2022/08/15 02:56:13;;;;;;;4.65;3.08;;;;;;;24.87;39.52;100194.16;6213319;23;20028;-64
2022/08/15 02:58:39;;;;;;;4.18;3.38;;;;;;;24.89;39.83;100191.78;6213727;23;20004;-64
2022/08/15 03:01:10;;;;;;;6.40;2.80;;;;;;;24.84;39.75;100189.22;6214720;23;20012;-64
2022/08/15 03:03:40;;;;;;;7.55;3.20;;;;;;;24.81;40.19;100184.28;6214335;23;20011;-64
2022/08/15 03:06:08;;;;;;;4.07;3.10;;;;;;;24.80;39.76;100185.44;6213576;23;20026;-63
2022/08/15 03:08:36;;;;;;;4.05;3.15;;;;;;;24.80;39.72;100183.44;6212800;23;20036;-64
2022/08/15 03:11:04;;;;;;;4.25;3.38;;;;;;;24.78;40.02;100190.66;6214020;23;20055;-64
2022/08/15 03:13:31;;;;;;;4.05;3.00;;;;;;;24.77;40.35;100189.03;6213498;23;20012;-62
2022/08/15 03:15:57;;;;;;;3.38;3.08;;;;;;;24.70;39.97;100204.66;6215173;23;20028;-63
2022/08/15 03:18:25;;;;;;;3.83;3.10;;;;;;;24.68;40.25;100206.22;6214953;23;20004;-63
2022/08/15 03:20:51;;;;;;;4.93;3.20;;;;;;;24.70;40.35;100201.81;6214369;23;20009;-63
2022/08/15 03:23:20;;;;;;;5.28;3.28;;;;;;;24.61;40.02;100201.19;6216107;23;20015;-63
2022/08/15 03:25:49;;;;;;;4.82;3.97;;;;;;;24.57;39.89;100186.06;6215480;23;20078;-63
2022/08/15 03:28:20;;;;;;;7.22;3.72;;;;;;;24.60;40.14;100185.34;6215403;23;20001;-63
2022/08/15 03:30:45;;;;;;;4.22;3.00;;;;;;;24.64;40.20;100186.28;6215115;23;20004;-63
2022/08/15 03:33:10;;;;;;;5.72;3.78;;;;;;;24.59;40.06;100188.53;6203118;23;20011;-63
2022/08/15 03:35:42;;;;;;;5.22;3.33;;;;;;;24.59;40.12;100189.34;6215614;23;20012;-63
2022/08/15 03:38:08;;;;;;;6.47;3.60;;;;;;;24.59;40.52;100194.22;6216534;23;20080;-63
2022/08/15 03:40:34;;;;;;;6.93;3.60;;;;;;;24.55;40.46;100196.13;6215943;23;20078;-63
2022/08/15 03:43:06;;;;;;;5.30;3.40;;;;;;;24.55;40.68;100188.44;6216303;23;20009;-63
2022/08/15 03:45:31;;;;;;;6.30;3.53;;;;;;;24.55;40.49;100185.59;6216090;23;20083;-64
2022/08/15 03:47:57;;;;;;;5.82;3.58;;;;;;;24.53;40.71;100190.84;6214162;23;20460;-63
2022/08/15 03:50:23;;;;;;;5.47;3.63;;;;;;;24.45;40.95;100191.81;6215261;23;20413;-63
2022/08/15 03:52:55;;;;;;;5.40;3.42;;;;;;;24.47;41.15;100201.59;6216106;23;20024;-63
2022/08/15 03:55:22;;;;;;;4.75;3.90;;;;;;;24.39;40.97;100204.59;6215690;23;20016;-63
2022/08/15 03:57:48;;;;;;;7.97;4.28;;;;;;;24.30;41.32;100204.75;6216319;23;20004;-63
2022/08/15 04:00:16;;;;;;;7.97;4.10;;;;;;;24.35;41.52;100206.50;6215124;23;20036;-63
2022/08/15 04:02:42;;;;;;;7.43;3.95;;;;;;;24.34;41.38;100204.84;6213975;23;20028;-63
2022/08/15 04:05:08;;;;;;;6.78;4.05;;;;;;;24.37;41.71;100199.28;6214151;23;20012;-63
2022/08/15 04:07:35;;;;;;;8.20;4.53;;;;;;;24.35;41.38;100201.63;6214629;23;20000;-64
2022/08/15 04:10:04;;;;;;;6.88;4.13;;;;;;;24.35;41.77;100189.47;6213977;23;20008;-63
2022/08/15 04:12:32;;;;;;;8.65;4.18;;;;;;;24.25;42.05;100185.16;6214622;23;20013;-63
2022/08/15 04:14:58;;;;;;;5.60;4.30;;;;;;;24.31;42.26;100194.22;6214758;23;20092;-63
2022/08/15 04:17:23;;;;;;;11.02;3.75;;;;;;;24.32;42.45;100195.88;6213674;23;20028;-63
2022/08/15 04:19:48;;;;;;;6.60;3.70;;;;;;;24.27;42.73;100198.97;6215750;23;20007;-63
2022/08/15 04:22:26;;;;;;;7.35;3.88;;;;;;;24.27;42.78;100196.94;6214781;23;20079;-63
2022/08/15 04:24:51;;;;;;;4.50;3.58;;;;;;;24.28;43.10;100197.78;6215757;23;20055;-63
2022/08/15 04:27:16;;;;;;;7.30;3.80;;;;;;;24.24;43.11;100200.50;6215670;23;20009;-63
2022/08/15 04:29:41;;;;;;;6.38;3.80;;;;;;;24.18;43.69;100197.13;6214102;23;20007;-63
2022/08/15 04:32:11;;;;;;;6.07;4.05;;;;;;;24.22;43.86;100200.88;6213552;23;20028;-63
2022/08/15 04:34:38;;;;;;;8.07;4.20;;;;;;;24.15;44.26;100200.66;6215247;23;20004;-63
2022/08/15 04:37:03;;;;;;;6.82;4.50;;;;;;;24.14;44.35;100204.69;6214952;23;20015;-64
2022/08/15 04:39:28;;;;;;;9.43;4.15;;;;;;;24.17;44.69;100200.28;6214605;23;20638;-64
2022/08/15 04:41:55;;;;;;;6.05;4.15;;;;;;;24.23;44.38;100201.69;6215327;23;20008;-63
2022/08/15 04:44:20;;;;;;;7.38;4.40;;;;;;;24.22;44.57;100206.56;6214552;23;20016;-64
2022/08/15 04:46:45;;;;;;;6.90;4.32;;;;;;;24.13;45.21;100210.72;6213036;23;20005;-64
2022/08/15 04:49:12;;;;;;;5.00;4.03;;;;;;;24.18;45.09;100211.28;6215467;23;20041;-64
2022/08/15 04:51:37;;;;;;;6.55;4.25;;;;;;;24.16;45.23;100207.16;6213894;23;20005;-64
2022/08/15 04:54:04;;;;;;;4.93;4.03;;;;;;;24.18;45.32;100207.63;6214379;23;20015;-64
2022/08/15 04:56:29;;;;;;;7.00;4.35;;;;;;;24.17;45.92;100209.66;6214692;23;20433;-64
2022/08/15 04:58:54;;;;;;;7.80;4.45;;;;;;;24.19;45.95;100206.44;6213682;23;20011;-64
2022/08/15 05:01:20;;;;;;;7.05;4.43;;;;;;;24.16;45.82;100219.31;6213054;23;20008;-63
2022/08/15 05:03:45;;;;;;;7.50;4.28;;;;;;;24.03;46.20;100220.56;6215439;23;20079;-64
2022/08/15 05:06:11;;;;;;;7.57;4.57;;;;;;;24.12;46.16;100214.72;6213743;23;20012;-64
2022/08/15 05:08:38;;;;;;;7.25;4.80;;;;;;;24.07;46.81;100224.31;6214438;23;20079;-63
2022/08/15 05:11:07;;;;;;;7.10;4.72;;;;;;;24.10;46.81;100215.09;6213987;23;20024;-63
2022/08/15 05:13:37;;;;;;;5.60;4.50;;;;;;;24.12;46.94;100215.56;6212523;23;20035;-63
2022/08/15 05:16:07;;;;;;;9.57;4.55;;;;;;;24.13;46.55;100207.88;6213305;23;20036;-63
2022/08/15 05:18:34;;;;;;;9.00;4.53;;;;;;;24.13;46.81;100219.22;6212377;23;20040;-64
2022/08/15 05:20:59;;;;;;;8.80;4.50;;;;;;;24.13;46.81;100225.75;6213101;23;20009;-63
2022/08/15 05:23:26;;;;;;;8.73;4.25;;;;;;;24.12;47.12;100221.22;6214416;23;20004;-63
2022/08/15 05:25:55;;;;;;;8.18;4.07;;;;;;;24.14;47.08;100230.22;6214556;23;20012;-63
2022/08/15 05:28:21;;;;;;;5.40;4.25;;;;;;;24.14;46.78;100235.88;6211896;23;20076;-63
2022/08/15 05:30:48;;;;;;;7.95;4.22;;;;;;;24.12;47.06;100241.06;6214194;23;20374;-63
2022/08/15 05:33:16;;;;;;;7.30;4.15;;;;;;;24.02;47.89;100243.63;6213662;23;20004;-63
2022/08/15 05:35:46;;;;;;;7.95;4.20;;;;;;;24.09;47.58;100244.66;6211319;23;20062;-63
2022/08/15 05:38:18;;;;;;;8.77;5.00;;;;;;;24.10;47.76;100245.47;6214249;23;20004;-63
2022/08/15 05:41:08;;;;;;;8.13;4.60;;;;;;;24.15;47.36;100251.72;6212066;23;20401;-63
2022/08/15 05:43:47;;;;;;;9.30;4.38;;;;;;;24.13;47.78;100241.91;6213716;23;20488;-63
2022/08/15 05:46:33;;;;;;;9.52;4.93;;;;;;;24.15;47.65;100245.22;6214088;23;20008;-63
2022/08/15 05:49:21;;;;;;;8.38;4.53;;;;;;;24.05;48.53;100248.53;6211644;23;20344;-64
2022/08/15 05:52:24;;;;;;;8.55;4.45;;;;;;;24.09;47.77;100244.66;6212498;23;20008;-64
2022/08/15 05:55:21;;;;;;;7.40;4.50;;;;;;;24.11;47.74;100245.09;6211820;23;20047;-62
2022/08/15 05:58:14;;;;;;;6.30;4.75;;;;;;;24.07;48.63;100246.19;6213947;23;20325;-63
2022/08/15 06:00:44;;;;;;;10.10;4.38;;;;;;;24.06;48.64;100245.38;6213102;23;20475;-63
2022/08/15 06:03:15;;;;;;;8.30;4.40;;;;;;;24.06;48.93;100242.53;6212981;23;20428;-63
2022/08/15 06:05:51;;;;;;;6.68;4.10;;;;;;;24.08;48.72;100239.31;6214730;23;20037;-63
2022/08/15 06:08:34;;;;;;;10.27;4.60;;;;;;;24.12;48.82;100255.25;6211707;23;20015;-62
2022/08/15 06:11:11;;;;;;;6.72;3.88;;;;;;;24.12;48.65;100260.09;6212718;23;20365;-62
2022/08/15 06:13:48;;;;;;;7.53;4.28;;;;;;;24.10;49.53;100260.47;6213820;23;20009;-61
2022/08/15 06:16:21;;;;;;;8.65;4.55;;;;;;;24.10;48.62;100253.97;6211468;23;20031;-62
2022/08/15 06:18:47;;;;;;;8.63;3.95;;;;;;;24.15;49.34;100257.38;6211740;23;20325;-63
2022/08/15 06:21:41;;;;;;;8.65;4.30;;;;;;;24.19;48.40;100260.31;6211848;23;20075;-63
2022/08/15 06:24:31;;;;;;;9.90;4.38;;;;;;;24.19;49.04;100260.31;6210129;23;20009;-63
2022/08/15 06:27:03;;;;;;;6.53;4.30;;;;;;;24.20;49.45;100264.81;6213500;23;20769;-63
2022/08/15 06:29:34;;;;;;;7.97;4.38;;;;;;;24.08;49.76;100262.00;6211968;23;20019;-62
2022/08/15 06:32:11;;;;;;;6.33;4.13;;;;;;;24.17;49.42;100260.69;6213010;23;20433;-63
2022/08/15 06:34:48;;;;;;;7.35;3.92;;;;;;;24.09;49.71;100258.81;6212204;23;20256;-63
2022/08/15 06:37:38;;;;;;;7.45;4.43;;;;;;;24.16;49.77;100261.84;6211584;23;20008;-63
2022/08/15 06:40:22;;;;;;;7.10;4.10;;;;;;;24.18;49.62;100255.84;6212645;23;20035;-62
2022/08/15 06:42:47;;;;;;;7.47;5.10;;;;;;;24.16;50.32;100253.34;6214316;23;20011;-62
2022/08/15 06:45:18;;;;;;;6.70;4.20;;;;;;;24.14;50.45;100255.72;6212187;23;20004;-61
2022/08/15 06:47:46;;;;;;;6.07;4.60;;;;;;;24.16;50.39;100255.38;6213062;23;20000;-63
2022/08/15 06:50:18;;;;;;;10.23;4.43;;;;;;;24.11;50.39;100259.28;6212670;23;20001;-62
2022/08/15 06:52:54;;;;;;;7.10;4.28;;;;;;;24.10;50.90;100268.16;6212398;23;20005;-61
2022/08/15 06:55:22;;;;;;;10.80;4.60;;;;;;;24.12;51.10;100265.78;6213554;23;20433;-61
2022/08/15 06:57:58;;;;;;;7.82;4.13;;;;;;;24.14;50.87;100275.56;6209110;23;20016;-62
2022/08/15 07:00:57;;;;;;;7.18;4.55;;;;;;;24.20;50.24;100276.97;6204758;23;20023;-63
2022/08/15 07:03:42;;;;;;;6.35;4.32;;;;;;;24.17;50.82;100274.88;6207717;23;20026;-63
2022/08/15 07:06:12;;;;;;;8.68;5.05;;;;;;;23.96;51.80;100263.69;6206294;23;20019;-65
2022/08/15 07:08:48;;;;;;;6.78;4.82;;;;;;;24.05;51.38;100262.72;6208603;23;20028;-63
2022/08/15 07:11:24;;;;;;;7.88;4.70;;;;;;;24.10;51.90;100251.97;6208528;23;20306;-65
2022/08/15 07:14:30;;;;;;;7.72;4.60;;;;;;;24.28;50.78;100260.16;6205290;23;20082;-65
2022/08/15 07:17:22;;;;;;;7.32;4.60;;;;;;;24.43;50.22;100256.59;6205423;23;20069;-64
2022/08/15 07:19:48;;;;;;;5.70;4.50;;;;;;;24.42;50.65;100257.78;6200111;23;20019;-64
2022/08/15 07:22:13;;;;;;;8.77;4.82;;;;;;;24.31;51.87;100254.59;6208279;23;20004;-65
2022/08/15 07:24:48;;;;;;;5.47;3.65;;;;;;;24.44;50.82;100255.41;6210544;23;20138;-64
2022/08/15 07:27:17;;;;;;;9.13;4.68;;;;;;;24.43;51.16;100254.56;6207816;23;20004;-64
2022/08/15 07:29:47;;;;;;;7.25;4.40;;;;;;;24.48;51.87;100256.31;6211220;23;20298;-63
2022/08/15 07:32:20;;;;;;;7.50;4.60;;;;;;;24.51;51.44;100244.25;6207051;23;20008;-65
2022/08/15 07:35:27;;;;;;;6.97;4.90;;;;;;;24.60;50.63;100253.44;6209114;23;20004;-63
2022/08/15 07:38:00;;;;;;;14.30;5.13;;;;;;;24.57;51.24;100253.34;6059115;23;20089;-64
2022/08/15 07:40:39;;;;;;;11.52;5.20;;;;;;;24.57;51.09;100259.84;6057303;23;20039;-65
2022/08/15 07:43:28;;;;;;;9.80;6.43;;;;;;;24.48;51.28;100260.00;6153718;23;20481;-62
2022/08/15 07:46:12;;;;;;;8.65;5.22;;;;;;;24.52;51.14;100254.41;6210555;23;20008;-62
2022/08/15 07:48:41;;;;;;;12.18;5.25;;;;;;;24.55;51.47;100262.22;6208388;23;20028;-62
2022/08/15 07:51:29;;;;;;;9.38;6.60;;;;;;;24.56;51.33;100268.69;6211053;23;20447;-63
2022/08/15 07:54:19;;;;;;;7.75;5.80;;;;;;;24.52;51.40;100264.94;6208940;23;20004;-63
2022/08/15 07:56:53;;;;;;;7.78;5.80;;;;;;;24.55;51.01;100261.38;6210193;23;20009;-64
2022/08/15 07:59:25;;;;;;;9.18;5.70;;;;;;;24.52;51.46;100262.94;6211690;23;19993;-62
2022/08/15 08:02:06;;;;;;;8.02;5.68;;;;;;;24.63;51.42;100268.91;6206130;23;20024;-63
2022/08/15 08:04:33;;;;;;;9.80;6.38;;;;;;;24.51;52.15;100269.78;6208264;23;20023;-64
2022/08/15 08:07:23;;;;;;;8.40;5.85;;;;;;;24.61;51.12;100265.63;6207819;23;20036;-63
2022/08/15 08:10:00;;;;;;;12.15;5.55;;;;;;;24.62;51.20;100275.78;6210994;23;20005;-64
2022/08/15 08:12:57;;;;;;;12.50;5.50;;;;;;;24.65;51.13;100272.22;6212731;23;20011;-63
2022/08/15 08:16:04;;;;;;;6.95;5.63;;;;;;;24.72;50.85;100270.41;6198921;23;20373;-62
2022/08/15 08:18:50;;;;;;;7.57;4.68;;;;;;;24.83;51.24;100279.19;6211620;23;20013;-62
2022/08/15 08:21:21;;;;;;;9.52;5.20;;;;;;;24.81;51.65;100275.91;6211661;23;20044;-62
2022/08/15 08:23:53;;;;;;;10.55;5.10;;;;;;;24.85;50.64;100281.69;6209419;23;20380;-61
2022/08/15 08:26:27;;;;;;;6.72;5.70;;;;;;;24.71;51.41;100287.78;6210987;23;20071;-62
2022/08/15 08:28:58;;;;;;;5.43;4.43;;;;;;;24.82;52.25;100285.25;6211244;23;20059;-60
2022/08/15 08:31:27;;;;;;;9.77;5.40;;;;;;;24.85;52.14;100290.22;6210544;23;20005;-59
2022/08/15 08:34:19;;;;;;;13.15;5.32;;;;;;;24.89;50.95;100283.44;6208292;23;20013;-62
2022/08/15 08:36:55;;;;;;;11.88;5.22;;;;;;;24.85;51.38;100276.84;6211040;23;20001;-61
2022/08/15 08:39:32;;;;;;;10.93;5.70;;;;;;;24.84;51.28;100280.06;6212346;23;20012;-61
2022/08/15 08:42:05;;;;;;;10.77;6.05;;;;;;;24.80;51.26;100284.78;6209869;23;20072;-61
2022/08/15 08:44:54;;;;;;;8.15;4.85;;;;;;;24.85;51.67;100279.69;6211419;23;20078;-61
2022/08/15 08:47:50;;;;;;;7.53;4.85;;;;;;;24.87;51.56;100279.31;6212370;23;20099;-61
2022/08/15 08:50:39;;;;;;;9.70;5.18;;;;;;;24.86;50.96;100287.00;6165040;23;20008;-61
2022/08/15 08:53:21;;;;;;;13.10;5.40;;;;;;;24.72;52.44;100287.44;6209411;23;20438;-61
2022/08/15 08:55:56;;;;;;;11.25;5.15;;;;;;;24.73;52.40;100285.44;6209028;23;20016;-60
2022/08/15 08:58:30;;;;;;;13.63;5.93;;;;;;;24.66;52.16;100277.53;6209631;23;20015;-59
2022/08/15 09:00:57;;;;;;;7.97;5.60;;;;;;;24.64;52.45;100282.75;6212349;23;20015;-60
2022/08/15 09:03:29;;;;;;;11.13;5.43;;;;;;;24.65;52.47;100287.22;6211680;23;20024;-61
2022/08/15 09:05:57;;;;;;;7.53;4.93;;;;;;;24.65;52.52;100292.09;6208854;23;20046;-60
2022/08/15 09:08:51;;;;;;;7.50;5.80;;;;;;;24.63;51.96;100289.59;6209943;23;20000;-61
2022/08/15 09:11:19;;;;;;;11.23;6.20;;;;;;;24.63;52.60;100297.28;6208742;23;20329;-60
2022/08/15 09:13:46;;;;;;;9.18;5.90;;;;;;;24.62;52.15;100307.81;6210834;23;20007;-61
2022/08/15 09:16:46;;;;;;;11.38;5.65;;;;;;;24.71;51.78;100305.63;6211486;23;20004;-61
2022/08/15 09:19:33;;;;;;;8.35;6.00;;;;;;;24.62;52.44;100316.31;6117094;23;20431;-61
2022/08/15 09:21:59;;;;;;;8.13;5.15;;;;;;;24.68;52.33;100309.22;6210187;23;20051;-60
2022/08/15 09:24:25;;;;;;;6.72;5.47;;;;;;;24.70;52.67;100308.84;6210261;23;20040;-61
2022/08/15 09:27:33;;;;;;;6.43;5.40;;;;;;;24.77;52.40;100299.72;6206105;23;20080;-60
2022/08/15 09:30:06;;;;;;;8.43;5.45;;;;;;;24.78;52.29;100304.19;6207861;23;20013;-60
2022/08/15 09:32:43;;;;;;;10.18;5.88;;;;;;;24.80;51.69;100302.66;6208086;23;20737;-60
2022/08/15 09:35:27;;;;;;;10.93;6.68;;;;;;;24.77;52.02;100306.22;6207137;23;20015;-59
2022/08/15 09:38:18;;;;;;;11.82;5.82;;;;;;;24.79;51.93;100306.66;6210601;23;20012;-59
2022/08/15 09:41:10;;;;;;;8.10;6.53;;;;;;;24.77;52.64;100302.56;6208511;23;20009;-60
2022/08/15 09:43:56;;;;;;;7.30;5.35;;;;;;;24.76;53.01;100312.22;6208094;23;20048;-60
2022/08/15 09:46:42;;;;;;;8.80;6.07;;;;;;;24.82;52.11;100307.97;6210143;23;20302;-61
2022/08/15 09:49:10;;;;;;;9.38;6.53;;;;;;;24.80;52.36;100296.13;6134557;23;20364;-59
2022/08/15 09:52:09;;;;;;;10.43;6.57;;;;;;;24.91;52.35;100302.94;6210784;23;20451;-60
2022/08/15 09:54:45;;;;;;;7.35;5.70;;;;;;;24.94;51.90;100297.34;6210121;23;20012;-60
2022/08/15 09:57:30;;;;;;;9.95;5.43;;;;;;;25.04;52.54;100301.69;6209610;23;20220;-60
2022/08/15 10:00:00;;;;;;;9.48;7.13;;;;;;;24.94;53.08;100305.06;6209154;23;20036;-61
2022/08/15 10:02:28;;;;;;;7.35;5.43;;;;;;;25.04;53.38;100307.38;6209411;23;20086;-60
2022/08/15 10:04:55;;;;;;;8.07;5.32;;;;;;;25.08;53.16;100304.63;6209171;23;20050;-60
2022/08/15 10:07:39;;;;;;;10.00;5.63;;;;;;;25.14;52.63;100300.34;6208806;23;20012;-60
2022/08/15 10:10:19;;;;;;;8.88;6.40;;;;;;;25.13;52.84;100304.38;6209794;23;20032;-60
2022/08/15 10:13:06;;;;;;;8.95;6.97;;;;;;;25.16;52.29;100310.16;6208417;23;20016;-60
2022/08/15 10:15:41;;;;;;;11.25;6.20;;;;;;;25.18;52.06;100302.06;6212035;23;20404;-59
2022/08/15 10:18:08;;;;;;;8.43;5.97;;;;;;;25.17;52.79;100311.81;6211442;23;20008;-60
2022/08/15 10:20:33;;;;;;;9.07;5.78;;;;;;;25.19;51.99;100300.06;6211458;23;20004;-61
2022/08/15 10:22:59;;;;;;;9.93;5.75;;;;;;;25.20;52.55;100305.41;6208537;23;20013;-60
2022/08/15 10:25:28;;;;;;;11.93;6.88;;;;;;;25.20;52.23;100304.56;6210859;23;20008;-61
2022/08/15 10:28:12;;;;;;;9.23;6.28;;;;;;;25.17;51.92;100308.97;6209645;23;20011;-60
2022/08/15 10:31:02;;;;;;;13.82;6.60;;;;;;;25.18;51.99;100307.75;6209809;23;20004;-61
2022/08/15 10:33:33;;;;;;;9.85;5.97;;;;;;;25.18;52.12;100306.94;6211335;23;20011;-59
2022/08/15 10:36:18;;;;;;;8.57;5.50;;;;;;;25.22;51.94;100308.69;6208144;23;20476;-60
2022/08/15 10:38:49;;;;;;;10.77;6.40;;;;;;;25.14;51.93;100301.16;6209237;23;20348;-59
2022/08/15 10:41:31;;;;;;;8.60;5.88;;;;;;;25.19;51.94;100314.25;6209815;23;20004;-59
2022/08/15 10:44:21;;;;;;;9.32;5.40;;;;;;;25.25;52.09;100317.66;6207808;23;20008;-60
2022/08/15 10:47:15;;;;;;;10.80;5.50;;;;;;;25.26;52.32;100320.13;6207812;23;20413;-60
2022/08/15 10:50:08;;;;;;;6.72;5.18;;;;;;;25.28;51.79;100309.25;6199985;23;20097;-60
2022/08/15 10:53:07;;;;;;;8.63;5.65;;;;;;;25.24;52.21;100316.84;6210366;23;20009;-60
2022/08/15 10:55:39;;;;;;;6.20;5.07;;;;;;;25.27;52.20;100316.13;6174765;23;20015;-60
2022/08/15 10:58:09;;;;;;;9.52;5.13;;;;;;;25.27;52.13;100330.34;6207366;23;20005;-60
2022/08/15 11:00:37;;;;;;;10.35;5.97;;;;;;;25.28;51.91;100323.44;6211274;23;20024;-59
2022/08/15 11:03:07;;;;;;;9.75;5.82;;;;;;;25.17;52.19;100328.84;6210398;23;20005;-59
2022/08/15 11:05:33;;;;;;;10.70;5.72;;;;;;;25.15;52.39;100321.88;6209563;23;20009;-60
2022/08/15 11:07:58;;;;;;;8.20;5.63;;;;;;;25.18;52.19;100319.13;6207916;23;20413;-60
2022/08/15 11:10:30;;;;;;;14.20;5.80;;;;;;;25.15;52.33;100321.88;6209575;23;20004;-59
2022/08/15 11:12:59;;;;;;;;;;;;;;;25.30;51.55;100326.72;6208878;23;20009;-59
2022/08/15 11:15:31;;;;;;;8.32;5.65;;;;;;;25.20;52.62;100328.13;6184173;23;20289;-59
2022/08/15 11:18:04;;;;;;;10.35;5.93;;;;;;;25.19;52.80;100320.78;6208632;23;20009;-60
2022/08/15 11:20:42;;;;;;;9.70;5.97;;;;;;;25.17;52.62;100317.47;6206738;23;20013;-60
2022/08/15 11:23:09;;;;;;;8.15;5.68;;;;;;;25.16;52.16;100320.69;6207880;23;20072;-60
2022/08/15 11:25:37;;;;;;;7.45;5.47;;;;;;;25.07;52.50;100320.81;6209073;23;20004;-60
2022/08/15 11:28:11;;;;;;;7.85;5.55;;;;;;;25.09;51.92;100315.63;6208165;23;20007;-60
2022/08/15 11:30:40;;;;;;;9.93;5.05;;;;;;;25.11;52.46;100321.78;6212027;23;20008;-59
2022/08/15 11:33:27;;;;;;;6.88;5.70;;;;;;;25.11;51.82;100316.13;6206300;23;20067;-59
2022/08/15 11:36:17;;;;;;;7.50;5.70;;;;;;;25.17;51.88;100310.97;6209306;23;20015;-59
2022/08/15 11:38:47;;;;;;;10.43;5.43;;;;;;;25.18;52.10;100316.28;6211217;23;20004;-60
2022/08/15 11:41:22;;;;;;;9.57;5.65;;;;;;;25.21;52.29;100323.25;6210712;23;20019;-60
2022/08/15 11:43:51;;;;;;;13.95;5.50;;;;;;;25.21;52.04;100326.91;6212167;23;20329;-60
2022/08/15 11:46:19;;;;;;;9.35;5.95;;;;;;;25.22;51.73;100324.91;6211681;23;20000;-59
2022/08/15 11:48:49;;;;;;;8.90;5.90;;;;;;;25.24;51.91;100327.41;6209854;23;20059;-62
2022/08/15 11:51:14;;;;;;;10.65;6.43;;;;;;;25.29;51.78;100329.94;6212087;23;20076;-59
2022/08/15 11:53:45;;;;;;;11.05;6.97;;;;;;;25.27;51.29;100327.50;6212947;23;20376;-60